Time,TemperatureF,DewpointF,PressureIn,WindDirection,WindDirectionDegrees,WindSpeedMPH,WindSpeedGustMPH,Humidity,HourlyPrecipIn,Conditions,Clouds,dailyrainin,SoftwareType,DateUTC
2013-09-04 00:23:00,59.0,55.0,-100.00,SSE,150,1.0,3.0,85,0.00,,,-99.99,,2013-09-04 05:23:00,
2013-09-04 00:43:00,59.0,55.0,-100.00,SSE,155,0.0,1.0,86,0.00,,,-99.99,,2013-09-04 05:43:00,
2013-09-04 01:22:00,59.0,55.0,-100.00,South,185,1.0,2.0,86,0.00,,,-99.99,,2013-09-04 06:22:00,
2013-09-04 01:42:00,58.0,55.0,-100.00,SSE,160,0.0,0.0,87,0.00,,,-99.99,,2013-09-04 06:42:00,
2013-09-04 02:22:00,58.0,54.0,-100.00,South,185,2.0,2.0,87,0.00,,,-99.99,,2013-09-04 07:22:00,
2013-09-04 02:42:00,59.0,55.0,-100.00,South,185,2.0,2.0,87,0.00,,,-99.99,,2013-09-04 07:42:00,
2013-09-04 03:22:00,57.0,54.0,-100.00,South,185,1.0,1.0,88,0.00,,,-99.99,,2013-09-04 08:22:00,
2013-09-04 03:43:00,57.0,54.0,-100.00,South,180,1.0,1.0,88,0.00,,,-99.99,,2013-09-04 08:43:00,
2013-09-04 04:22:00,57.0,54.0,-100.00,SSW,210,2.0,3.0,90,0.00,,,-99.99,,2013-09-04 09:22:00,
2013-09-04 04:43:00,57.0,54.0,-100.00,SW,215,2.0,3.0,91,0.00,,,-99.99,,2013-09-04 09:43:00,
2013-09-04 05:23:00,57.0,55.0,-100.00,SSW,205,2.0,3.0,92,0.00,,,-99.99,,2013-09-04 10:23:00,
2013-09-04 05:42:00,57.0,54.0,-100.00,SSW,200,2.0,2.0,91,0.00,,,-99.99,,2013-09-04 10:42:00,
2013-09-04 06:22:00,56.0,53.0,-100.00,East,95,0.0,1.0,91,0.00,,,-99.99,,2013-09-04 11:22:00,
2013-09-04 06:42:00,55.0,53.0,-100.00,East,95,0.0,1.0,92,0.00,,,-99.99,,2013-09-04 11:42:00,
2013-09-04 07:21:00,54.0,53.0,-100.00,East,95,0.0,1.0,94,0.00,,,-99.99,,2013-09-04 12:21:00,
2013-09-04 07:42:00,55.0,53.0,-100.00,NNE,30,0.0,0.0,93,0.00,,,-99.99,,2013-09-04 12:42:00,
2013-09-04 08:21:00,62.0,58.0,-100.00,NE,45,0.0,0.0,88,0.00,,,-99.99,,2013-09-04 13:21:00,
2013-09-04 08:42:00,64.0,57.0,-100.00,SE,145,0.0,2.0,77,0.00,,,-99.99,,2013-09-04 13:42:00,
2013-09-04 09:42:00,72.0,56.0,-100.00,WSW,245,2.0,4.0,55,0.00,,,-99.99,,2013-09-04 14:42:00,
2013-09-04 10:22:00,75.0,55.0,-100.00,West,265,4.0,4.0,48,0.00,,,-99.99,,2013-09-04 15:22:00,
2013-09-04 10:43:00,77.0,55.0,-100.00,West,265,4.0,4.0,47,0.00,,,-99.99,,2013-09-04 15:43:00,
2013-09-04 11:23:00,81.0,56.0,-100.00,WSW,250,3.0,6.0,43,0.00,,,-99.99,,2013-09-04 16:23:00,
2013-09-04 11:43:00,81.0,56.0,-100.00,WSW,240,4.0,5.0,41,0.00,,,-99.99,,2013-09-04 16:43:00,
2013-09-04 12:23:00,85.0,57.0,-100.00,WSW,245,1.0,6.0,38,0.00,,,-99.99,,2013-09-04 17:23:00,
2013-09-04 12:42:00,85.0,57.0,-100.00,WSW,250,4.0,6.0,38,0.00,,,-99.99,,2013-09-04 17:42:00,
2013-09-04 13:21:00,86.0,57.0,-100.00,West,260,5.0,7.0,37,0.00,,,-99.99,,2013-09-04 18:21:00,
2013-09-04 13:42:00,88.0,58.0,-100.00,NW,310,4.0,9.0,36,0.00,,,-99.99,,2013-09-04 18:42:00,
2013-09-04 15:22:00,92.0,60.0,-100.00,NW,310,2.0,4.0,34,0.00,,,-99.99,,2013-09-04 20:22:00,
2013-09-04 16:22:00,91.0,59.0,-100.00,WNW,290,2.0,6.0,34,0.00,,,-99.99,,2013-09-04 21:22:00,
2013-09-04 16:44:00,90.0,58.0,-100.00,WSW,240,2.0,4.0,34,0.00,,,-99.99,,2013-09-04 21:44:00,
2013-09-04 17:23:00,92.0,59.0,-100.00,SW,235,1.0,3.0,33,0.00,,,-99.99,,2013-09-04 22:23:00,
2013-09-04 17:43:00,91.0,60.0,-100.00,WNW,290,1.0,4.0,35,0.00,,,-99.99,,2013-09-04 22:43:00,
2013-09-04 18:22:00,88.0,59.0,-100.00,WSW,240,3.0,4.0,37,0.00,,,-99.99,,2013-09-04 23:22:00,
2013-09-04 18:42:00,87.0,59.0,-100.00,WSW,255,3.0,4.0,38,0.00,,,-99.99,,2013-09-04 23:42:00,
2013-09-04 19:22:00,84.0,60.0,-100.00,WSW,240,2.0,2.0,43,0.00,,,-99.99,,2013-09-05 00:22:00,
2013-09-04 19:42:00,83.0,59.0,-100.00,WSW,245,2.0,3.0,44,0.00,,,-99.99,,2013-09-05 00:42:00,
2013-09-04 20:22:00,80.0,59.0,-100.00,WSW,255,1.0,2.0,48,0.00,,,-99.99,,2013-09-05 01:22:00,
2013-09-04 20:42:00,78.0,61.0,-100.00,SW,230,0.0,1.0,56,0.00,,,-99.99,,2013-09-05 01:42:00,
2013-09-04 21:22:00,74.0,64.0,-100.00,South,180,1.0,1.0,70,0.00,,,-99.99,,2013-09-05 02:22:00,
2013-09-04 22:22:00,72.0,64.0,-100.00,SSE,150,2.0,2.0,75,0.00,,,-99.99,,2013-09-05 03:22:00,
2013-09-04 22:45:00,73.0,64.0,-100.00,SSE,165,2.0,2.0,75,0.00,,,-99.99,,2013-09-05 03:45:00,
2013-09-04 23:24:00,72.0,64.0,-100.00,SSW,200,2.0,3.0,75,0.00,,,-99.99,,2013-09-05 04:24:00,
2013-09-04 23:44:00,72.0,65.0,-100.00,SW,225,2.0,3.0,76,0.00,,,-99.99,,2013-09-05 04:44:00,